Weather at Canala Airport [CLOSED]

Public forecast

Using degrees Celsius for public forecast. Weather courtesy of forecast.io.

Closest aviation weather report (METAR) to Canala Airport

Closest report is La Tontouta International Airport, 32.6 nm (60.3 km) SSE. Retrieved 2022/06/29 21:00 UTC (10 minutes ago):

NWWW 292100Z AUTO VRB01KT CAVOK 16/14 Q1019 NOSIG

Closest aviation forecast (TAF) to Canala Airport

Closest forecast is La Tontouta International Airport, 32.6 nm (60.3 km) SSE. Retrieved 2022/06/29 18:57 UTC (2 hours ago):

TAF NWWW 291700Z 2918/3018 VRB02KT 9999 FEW030